Home   Weather   New Zealand   Wellington   Past weeks
Flag for New Zealand

Past Weather in Wellington, New Zealand — Yesterday and Last 2 Weeks

Currently: 50 °F. Passing clouds. (Weather station: Wellington Airport, New Zealand). See more current weather

Past Weather in Wellington — Graph

°F

Wellington Temperature Yesterday

Maximum temperature yesterday: 55 °F (at 1:00 pm)
Minimum temperature yesterday: 41 °F (at 12:00 am)
Average temperature yesterday: 50 °F

High & Low Weather Summary for the Past Weeks

 TemperatureHumidityPressure
High61 °F (Aug 3, 1:30 pm)100% (Aug 6, 5:00 am)30.39 "Hg (Aug 6, 5:00 am)
Low37 °F (Aug 1, 7:30 am)54% (Aug 13, 3:30 pm)29.47 "Hg (Aug 6, 11:00 pm)
Average51 °F81%30.06 "Hg
* Reported Jul 31 6:00 pm — Aug 15 6:30 pm, Wellington. Weather by CustomWeather, © 2022

Note: Actual official high and low records may vary slightly from our data, if they occured in-between our weather recording intervals... More about our weather records

Wellington Weather History for the Previous 24 Hours

Scroll right to see more
 ConditionsComfort  
Time TempWeatherWind HumidityBarometerVisibility
6:30 pm
Mon, Aug 15
52 °FCool.8 mph77%30.33 "HgN/A
6:00 pm52 °FCool.10 mph77%30.33 "HgN/A
5:30 pm52 °FCool.9 mph82%30.30 "HgN/A
5:00 pm54 °FCool.10 mph77%30.30 "HgN/A
4:30 pm54 °FCool.8 mph77%30.33 "HgN/A
4:00 pm54 °FCool.10 mph77%30.33 "HgN/A
3:30 pm55 °FScattered clouds.10 mph72%30.33 "HgN/A
3:00 pm55 °FPassing clouds.10 mph72%30.33 "HgN/A
2:30 pm55 °FBroken clouds.12 mph77%30.33 "HgN/A
2:00 pm55 °FPartly sunny.12 mph72%30.33 "HgN/A
1:30 pm55 °FScattered clouds.3 mph77%30.36 "HgN/A
1:00 pm54 °FPartly sunny.3 mph77%30.36 "HgN/A
11:30 am54 °FPartly sunny.5 mph77%30.39 "Hg5 mi
11:00 am52 °FBroken clouds.8 mph82%30.36 "Hg3 mi
10:30 am54 °FMostly cloudy.5 mph77%30.36 "HgN/A
10:00 am55 °FScattered clouds.6 mph67%30.36 "HgN/A
9:30 am54 °FCool.6 mph72%30.36 "HgN/A
9:00 am52 °FCool.5 mph82%30.36 "Hg6 mi
8:30 am50 °FCool.5 mph82%30.33 "HgN/A
8:00 am50 °FCool.7 mph76%30.33 "HgN/A
7:30 am50 °FCool.8 mph76%30.33 "HgN/A
7:00 am50 °FCool.10 mph76%30.30 "HgN/A
6:30 am50 °FCool.10 mph76%30.30 "HgN/A
6:00 am50 °FCool.10 mph76%30.30 "HgN/A
5:30 am50 °FCool.12 mph76%30.30 "HgN/A
5:00 am50 °FCool.12 mph76%30.30 "HgN/A
4:30 am50 °FCool.13 mph76%30.30 "HgN/A
4:00 am50 °FCool.12 mph76%30.27 "HgN/A
3:30 am52 °FCool.14 mph72%30.27 "HgN/A
3:00 am50 °FPassing clouds.13 mph76%30.27 "HgN/A
2:30 am52 °FPassing clouds.18 mph72%30.27 "HgN/A
2:00 am52 °FCool.18 mph72%30.27 "HgN/A
1:30 am52 °FPassing clouds.20 mph72%30.27 "HgN/A
1:00 am52 °FPassing clouds.18 mph72%30.24 "HgN/A
12:30 am52 °FPassing clouds.20 mph72%30.24 "HgN/A
12:00 am52 °FPassing clouds.20 mph77%30.24 "HgN/A
11:30 pm
Sun, Aug 14
52 °FPassing clouds.21 mph72%30.24 "HgN/A
11:00 pm52 °FPassing clouds.22 mph72%30.21 "HgN/A
10:30 pm52 °FPassing clouds.24 mph72%30.24 "HgN/A
10:00 pm52 °FPassing clouds.21 mph72%30.24 "HgN/A
9:30 pm52 °FPassing clouds.21 mph72%30.24 "HgN/A
9:00 pm52 °FPassing clouds.20 mph72%30.24 "HgN/A
8:30 pm52 °FOvercast.22 mph72%30.24 "HgN/A
8:00 pm52 °FPassing clouds.18 mph72%30.24 "HgN/A
Weather by CustomWeather, © 2022

See weather overview